sensor_id;sensor_type;location;lat;lon;timestamp;P1;durP1;ratioP1;P2;durP2;ratioP2
16310;SDS011;8264;48.510;8.872;2024-03-08T00:00:09;28.30;;;19.03;;
16310;SDS011;8264;48.510;8.872;2024-03-08T00:02:37;24.93;;;18.43;;
16310;SDS011;8264;48.510;8.872;2024-03-08T00:05:04;25.70;;;17.33;;
16310;SDS011;8264;48.510;8.872;2024-03-08T00:07:31;24.83;;;18.17;;
16310;SDS011;8264;48.510;8.872;2024-03-08T00:09:58;28.33;;;18.30;;
16310;SDS011;8264;48.510;8.872;2024-03-08T00:12:25;25.53;;;18.17;;
16310;SDS011;8264;48.510;8.872;2024-03-08T00:14:53;28.10;;;18.27;;
16310;SDS011;8264;48.510;8.872;2024-03-08T00:17:20;26.87;;;18.43;;
16310;SDS011;8264;48.510;8.872;2024-03-08T00:19:48;25.83;;;18.37;;
16310;SDS011;8264;48.510;8.872;2024-03-08T00:22:14;27.30;;;17.97;;
16310;SDS011;8264;48.510;8.872;2024-03-08T00:24:41;24.47;;;17.77;;
16310;SDS011;8264;48.510;8.872;2024-03-08T00:27:07;26.60;;;18.27;;
16310;SDS011;8264;48.510;8.872;2024-03-08T00:29:34;26.73;;;18.67;;
16310;SDS011;8264;48.510;8.872;2024-03-08T00:32:02;27.53;;;16.37;;
16310;SDS011;8264;48.510;8.872;2024-03-08T00:34:28;25.63;;;18.23;;
16310;SDS011;8264;48.510;8.872;2024-03-08T00:36:56;27.77;;;18.60;;
16310;SDS011;8264;48.510;8.872;2024-03-08T00:39:23;25.93;;;17.37;;
16310;SDS011;8264;48.510;8.872;2024-03-08T00:41:50;27.23;;;18.40;;
16310;SDS011;8264;48.510;8.872;2024-03-08T00:44:17;26.97;;;19.50;;
16310;SDS011;8264;48.510;8.872;2024-03-08T00:46:43;25.27;;;17.60;;
16310;SDS011;8264;48.510;8.872;2024-03-08T00:49:11;27.73;;;17.83;;
16310;SDS011;8264;48.510;8.872;2024-03-08T00:51:38;26.90;;;18.23;;
16310;SDS011;8264;48.510;8.872;2024-03-08T00:54:05;28.03;;;17.67;;
16310;SDS011;8264;48.510;8.872;2024-03-08T00:56:31;29.03;;;19.37;;
16310;SDS011;8264;48.510;8.872;2024-03-08T00:58:59;24.90;;;17.77;;
16310;SDS011;8264;48.510;8.872;2024-03-08T01:01:25;24.83;;;17.53;;
16310;SDS011;8264;48.510;8.872;2024-03-08T01:03:52;23.77;;;16.17;;
16310;SDS011;8264;48.510;8.872;2024-03-08T01:06:25;25.27;;;16.33;;
16310;SDS011;8264;48.510;8.872;2024-03-08T01:08:53;23.20;;;15.87;;
16310;SDS011;8264;48.510;8.872;2024-03-08T01:11:19;24.53;;;16.77;;
16310;SDS011;8264;48.510;8.872;2024-03-08T01:13:46;21.73;;;16.83;;
16310;SDS011;8264;48.510;8.872;2024-03-08T01:16:14;22.00;;;16.00;;
16310;SDS011;8264;48.510;8.872;2024-03-08T01:18:41;21.10;;;15.87;;
16310;SDS011;8264;48.510;8.872;2024-03-08T01:21:08;22.10;;;15.80;;
16310;SDS011;8264;48.510;8.872;2024-03-08T01:23:36;24.80;;;16.50;;
16310;SDS011;8264;48.510;8.872;2024-03-08T01:26:03;23.93;;;17.10;;
16310;SDS011;8264;48.510;8.872;2024-03-08T01:28:29;28.77;;;17.30;;
16310;SDS011;8264;48.510;8.872;2024-03-08T01:30:56;21.00;;;15.03;;
16310;SDS011;8264;48.510;8.872;2024-03-08T01:33:23;24.53;;;17.67;;
16310;SDS011;8264;48.510;8.872;2024-03-08T01:35:50;23.77;;;15.30;;
16310;SDS011;8264;48.510;8.872;2024-03-08T01:38:17;25.77;;;18.13;;
16310;SDS011;8264;48.510;8.872;2024-03-08T01:40:45;27.17;;;18.03;;
16310;SDS011;8264;48.510;8.872;2024-03-08T01:43:17;30.87;;;17.80;;
16310;SDS011;8264;48.510;8.872;2024-03-08T01:45:44;26.90;;;19.00;;
16310;SDS011;8264;48.510;8.872;2024-03-08T01:48:11;26.13;;;18.30;;
16310;SDS011;8264;48.510;8.872;2024-03-08T01:50:38;26.57;;;18.93;;
16310;SDS011;8264;48.510;8.872;2024-03-08T01:53:05;30.13;;;19.80;;
16310;SDS011;8264;48.510;8.872;2024-03-08T01:55:31;28.17;;;18.17;;
16310;SDS011;8264;48.510;8.872;2024-03-08T01:58:00;26.97;;;19.20;;
16310;SDS011;8264;48.510;8.872;2024-03-08T02:00:26;27.53;;;19.00;;
16310;SDS011;8264;48.510;8.872;2024-03-08T02:02:55;29.23;;;19.23;;
16310;SDS011;8264;48.510;8.872;2024-03-08T02:05:21;28.20;;;19.43;;
16310;SDS011;8264;48.510;8.872;2024-03-08T02:07:48;30.83;;;19.47;;
16310;SDS011;8264;48.510;8.872;2024-03-08T02:10:15;32.17;;;20.43;;
16310;SDS011;8264;48.510;8.872;2024-03-08T02:12:41;31.03;;;20.20;;
16310;SDS011;8264;48.510;8.872;2024-03-08T02:15:09;32.17;;;21.00;;
16310;SDS011;8264;48.510;8.872;2024-03-08T02:17:36;31.27;;;20.47;;
16310;SDS011;8264;48.510;8.872;2024-03-08T02:20:03;32.60;;;20.13;;
16310;SDS011;8264;48.510;8.872;2024-03-08T02:22:32;35.40;;;22.33;;
16310;SDS011;8264;48.510;8.872;2024-03-08T02:24:58;31.00;;;21.90;;
16310;SDS011;8264;48.510;8.872;2024-03-08T02:27:32;32.53;;;20.67;;
16310;SDS011;8264;48.510;8.872;2024-03-08T02:30:08;30.13;;;20.40;;
16310;SDS011;8264;48.510;8.872;2024-03-08T02:32:37;29.10;;;19.67;;
16310;SDS011;8264;48.510;8.872;2024-03-08T02:35:04;31.27;;;20.87;;
16310;SDS011;8264;48.510;8.872;2024-03-08T02:37:32;32.90;;;20.30;;
16310;SDS011;8264;48.510;8.872;2024-03-08T02:39:59;28.97;;;19.30;;
16310;SDS011;8264;48.510;8.872;2024-03-08T02:42:25;26.20;;;18.47;;
16310;SDS011;8264;48.510;8.872;2024-03-08T02:44:52;28.10;;;19.03;;
16310;SDS011;8264;48.510;8.872;2024-03-08T02:47:19;27.40;;;18.40;;
16310;SDS011;8264;48.510;8.872;2024-03-08T02:49:45;26.13;;;17.53;;
16310;SDS011;8264;48.510;8.872;2024-03-08T02:52:12;26.17;;;17.87;;
16310;SDS011;8264;48.510;8.872;2024-03-08T02:54:40;26.40;;;18.07;;
16310;SDS011;8264;48.510;8.872;2024-03-08T02:57:06;27.83;;;19.20;;
16310;SDS011;8264;48.510;8.872;2024-03-08T02:59:33;28.53;;;19.60;;
16310;SDS011;8264;48.510;8.872;2024-03-08T03:02:00;27.57;;;18.43;;
16310;SDS011;8264;48.510;8.872;2024-03-08T03:04:27;25.70;;;18.03;;
16310;SDS011;8264;48.510;8.872;2024-03-08T03:06:53;27.20;;;18.17;;
16310;SDS011;8264;48.510;8.872;2024-03-08T03:09:20;27.10;;;17.50;;
16310;SDS011;8264;48.510;8.872;2024-03-08T03:11:54;27.90;;;18.80;;
16310;SDS011;8264;48.510;8.872;2024-03-08T03:14:20;28.70;;;18.73;;
16310;SDS011;8264;48.510;8.872;2024-03-08T03:16:47;27.47;;;19.20;;
16310;SDS011;8264;48.510;8.872;2024-03-08T03:19:13;28.53;;;19.03;;
16310;SDS011;8264;48.510;8.872;2024-03-08T03:21:41;30.97;;;19.87;;
16310;SDS011;8264;48.510;8.872;2024-03-08T03:24:08;30.10;;;19.80;;
16310;SDS011;8264;48.510;8.872;2024-03-08T03:26:35;29.40;;;19.17;;
16310;SDS011;8264;48.510;8.872;2024-03-08T03:29:05;29.70;;;19.47;;
16310;SDS011;8264;48.510;8.872;2024-03-08T03:31:33;26.47;;;18.30;;
16310;SDS011;8264;48.510;8.872;2024-03-08T03:34:01;30.10;;;17.80;;
16310;SDS011;8264;48.510;8.872;2024-03-08T03:36:28;29.70;;;20.00;;
16310;SDS011;8264;48.510;8.872;2024-03-08T03:38:55;31.83;;;20.13;;
16310;SDS011;8264;48.510;8.872;2024-03-08T03:41:30;31.17;;;19.33;;
16310;SDS011;8264;48.510;8.872;2024-03-08T03:43:57;31.43;;;19.23;;
16310;SDS011;8264;48.510;8.872;2024-03-08T03:46:25;33.23;;;19.77;;
16310;SDS011;8264;48.510;8.872;2024-03-08T03:48:52;30.43;;;19.50;;
16310;SDS011;8264;48.510;8.872;2024-03-08T03:51:19;31.83;;;19.47;;
16310;SDS011;8264;48.510;8.872;2024-03-08T03:53:46;31.03;;;19.83;;
16310;SDS011;8264;48.510;8.872;2024-03-08T03:56:13;29.30;;;18.80;;
16310;SDS011;8264;48.510;8.872;2024-03-08T03:58:39;28.40;;;18.60;;
16310;SDS011;8264;48.510;8.872;2024-03-08T04:01:06;30.77;;;19.77;;
16310;SDS011;8264;48.510;8.872;2024-03-08T04:03:34;26.77;;;17.93;;
16310;SDS011;8264;48.510;8.872;2024-03-08T04:06:00;33.73;;;19.67;;
16310;SDS011;8264;48.510;8.872;2024-03-08T04:08:28;31.27;;;18.97;;
16310;SDS011;8264;48.510;8.872;2024-03-08T04:10:54;29.73;;;19.00;;
16310;SDS011;8264;48.510;8.872;2024-03-08T04:13:21;26.60;;;18.10;;
16310;SDS011;8264;48.510;8.872;2024-03-08T04:15:47;28.87;;;18.20;;
16310;SDS011;8264;48.510;8.872;2024-03-08T04:18:14;26.97;;;18.30;;
16310;SDS011;8264;48.510;8.872;2024-03-08T04:20:42;28.13;;;18.50;;
16310;SDS011;8264;48.510;8.872;2024-03-08T04:23:08;26.23;;;17.23;;
16310;SDS011;8264;48.510;8.872;2024-03-08T04:25:35;29.13;;;19.20;;
16310;SDS011;8264;48.510;8.872;2024-03-08T04:28:01;25.40;;;16.87;;
16310;SDS011;8264;48.510;8.872;2024-03-08T04:30:28;27.30;;;17.73;;
16310;SDS011;8264;48.510;8.872;2024-03-08T04:32:55;24.70;;;16.43;;
16310;SDS011;8264;48.510;8.872;2024-03-08T04:35:22;25.63;;;17.47;;
16310;SDS011;8264;48.510;8.872;2024-03-08T04:37:50;24.20;;;17.17;;
16310;SDS011;8264;48.510;8.872;2024-03-08T04:40:17;24.83;;;17.50;;
16310;SDS011;8264;48.510;8.872;2024-03-08T04:42:43;28.47;;;16.73;;
16310;SDS011;8264;48.510;8.872;2024-03-08T04:45:10;24.83;;;16.73;;
16310;SDS011;8264;48.510;8.872;2024-03-08T04:47:37;22.30;;;16.20;;
16310;SDS011;8264;48.510;8.872;2024-03-08T04:50:04;24.50;;;15.43;;
16310;SDS011;8264;48.510;8.872;2024-03-08T04:52:31;26.63;;;16.17;;
16310;SDS011;8264;48.510;8.872;2024-03-08T04:54:59;25.10;;;17.07;;
16310;SDS011;8264;48.510;8.872;2024-03-08T04:57:27;25.73;;;17.47;;
16310;SDS011;8264;48.510;8.872;2024-03-08T04:59:53;27.00;;;17.47;;
16310;SDS011;8264;48.510;8.872;2024-03-08T05:02:20;24.03;;;16.73;;
16310;SDS011;8264;48.510;8.872;2024-03-08T05:04:47;24.23;;;17.00;;
16310;SDS011;8264;48.510;8.872;2024-03-08T05:07:14;30.23;;;18.50;;
16310;SDS011;8264;48.510;8.872;2024-03-08T05:09:40;26.97;;;17.83;;
16310;SDS011;8264;48.510;8.872;2024-03-08T05:12:09;27.57;;;19.23;;
16310;SDS011;8264;48.510;8.872;2024-03-08T05:14:36;27.23;;;17.37;;
16310;SDS011;8264;48.510;8.872;2024-03-08T05:17:03;26.93;;;17.57;;
16310;SDS011;8264;48.510;8.872;2024-03-08T05:19:31;27.10;;;16.90;;
16310;SDS011;8264;48.510;8.872;2024-03-08T05:21:58;25.30;;;16.60;;
16310;SDS011;8264;48.510;8.872;2024-03-08T05:24:25;25.33;;;16.77;;
16310;SDS011;8264;48.510;8.872;2024-03-08T05:26:51;26.80;;;18.73;;
16310;SDS011;8264;48.510;8.872;2024-03-08T05:29:19;26.73;;;17.60;;
16310;SDS011;8264;48.510;8.872;2024-03-08T05:31:46;23.83;;;15.70;;
16310;SDS011;8264;48.510;8.872;2024-03-08T05:34:14;28.10;;;19.73;;
16310;SDS011;8264;48.510;8.872;2024-03-08T05:36:41;30.00;;;20.20;;
16310;SDS011;8264;48.510;8.872;2024-03-08T05:39:09;26.80;;;18.77;;
16310;SDS011;8264;48.510;8.872;2024-03-08T05:41:36;24.80;;;16.70;;
16310;SDS011;8264;48.510;8.872;2024-03-08T05:44:03;28.90;;;20.23;;
16310;SDS011;8264;48.510;8.872;2024-03-08T05:46:31;30.20;;;20.73;;
16310;SDS011;8264;48.510;8.872;2024-03-08T05:48:58;26.70;;;18.60;;
16310;SDS011;8264;48.510;8.872;2024-03-08T05:51:24;25.90;;;16.97;;
16310;SDS011;8264;48.510;8.872;2024-03-08T05:53:52;26.37;;;18.53;;
16310;SDS011;8264;48.510;8.872;2024-03-08T05:56:20;26.97;;;17.13;;
16310;SDS011;8264;48.510;8.872;2024-03-08T05:58:47;27.93;;;19.30;;
16310;SDS011;8264;48.510;8.872;2024-03-08T06:01:15;24.50;;;17.30;;
16310;SDS011;8264;48.510;8.872;2024-03-08T06:03:43;25.53;;;18.47;;
16310;SDS011;8264;48.510;8.872;2024-03-08T06:06:10;25.27;;;18.33;;
16310;SDS011;8264;48.510;8.872;2024-03-08T06:08:37;26.70;;;17.87;;
16310;SDS011;8264;48.510;8.872;2024-03-08T06:11:04;25.67;;;17.30;;
16310;SDS011;8264;48.510;8.872;2024-03-08T06:13:31;27.77;;;17.80;;
16310;SDS011;8264;48.510;8.872;2024-03-08T06:15:58;32.23;;;19.27;;
16310;SDS011;8264;48.510;8.872;2024-03-08T06:18:25;25.70;;;17.80;;
16310;SDS011;8264;48.510;8.872;2024-03-08T06:20:53;27.07;;;17.73;;
16310;SDS011;8264;48.510;8.872;2024-03-08T06:23:20;25.30;;;17.47;;
16310;SDS011;8264;48.510;8.872;2024-03-08T06:25:47;24.87;;;17.17;;
16310;SDS011;8264;48.510;8.872;2024-03-08T06:28:16;25.83;;;17.80;;
16310;SDS011;8264;48.510;8.872;2024-03-08T06:30:43;28.30;;;17.90;;
16310;SDS011;8264;48.510;8.872;2024-03-08T06:33:09;30.37;;;19.17;;
16310;SDS011;8264;48.510;8.872;2024-03-08T06:35:36;26.67;;;17.83;;
16310;SDS011;8264;48.510;8.872;2024-03-08T06:38:05;25.63;;;17.10;;
16310;SDS011;8264;48.510;8.872;2024-03-08T06:40:31;25.40;;;17.67;;
16310;SDS011;8264;48.510;8.872;2024-03-08T06:42:58;52.40;;;35.20;;
16310;SDS011;8264;48.510;8.872;2024-03-08T06:45:24;29.07;;;19.03;;
16310;SDS011;8264;48.510;8.872;2024-03-08T06:47:51;28.43;;;19.37;;
16310;SDS011;8264;48.510;8.872;2024-03-08T06:50:17;29.93;;;18.47;;
16310;SDS011;8264;48.510;8.872;2024-03-08T06:52:44;26.53;;;18.67;;
16310;SDS011;8264;48.510;8.872;2024-03-08T06:55:17;25.87;;;17.00;;
16310;SDS011;8264;48.510;8.872;2024-03-08T06:57:43;28.30;;;18.80;;
16310;SDS011;8264;48.510;8.872;2024-03-08T07:00:10;32.20;;;20.90;;
16310;SDS011;8264;48.510;8.872;2024-03-08T07:02:43;25.70;;;17.13;;
16310;SDS011;8264;48.510;8.872;2024-03-08T07:05:10;27.20;;;18.40;;
16310;SDS011;8264;48.510;8.872;2024-03-08T07:07:37;28.63;;;18.87;;
16310;SDS011;8264;48.510;8.872;2024-03-08T07:10:04;28.90;;;19.70;;
16310;SDS011;8264;48.510;8.872;2024-03-08T07:12:32;28.97;;;18.73;;
16310;SDS011;8264;48.510;8.872;2024-03-08T07:14:58;28.27;;;18.50;;
16310;SDS011;8264;48.510;8.872;2024-03-08T07:17:25;30.80;;;20.43;;
16310;SDS011;8264;48.510;8.872;2024-03-08T07:19:52;30.73;;;19.73;;
16310;SDS011;8264;48.510;8.872;2024-03-08T07:22:19;30.57;;;19.10;;
16310;SDS011;8264;48.510;8.872;2024-03-08T07:24:47;28.10;;;18.83;;
16310;SDS011;8264;48.510;8.872;2024-03-08T07:27:29;32.40;;;19.90;;
16310;SDS011;8264;48.510;8.872;2024-03-08T07:29:59;36.33;;;22.70;;
16310;SDS011;8264;48.510;8.872;2024-03-08T07:32:25;85.27;;;46.53;;
16310;SDS011;8264;48.510;8.872;2024-03-08T07:34:54;55.90;;;33.73;;
16310;SDS011;8264;48.510;8.872;2024-03-08T07:37:21;34.03;;;23.30;;
16310;SDS011;8264;48.510;8.872;2024-03-08T07:39:48;29.00;;;20.73;;
16310;SDS011;8264;48.510;8.872;2024-03-08T07:42:15;29.27;;;19.77;;
16310;SDS011;8264;48.510;8.872;2024-03-08T07:48:14;31.33;;;19.67;;
16310;SDS011;8264;48.510;8.872;2024-03-08T07:50:55;29.23;;;19.13;;
16310;SDS011;8264;48.510;8.872;2024-03-08T07:53:21;29.27;;;19.07;;
16310;SDS011;8264;48.510;8.872;2024-03-08T07:56:02;28.90;;;18.23;;
16310;SDS011;8264;48.510;8.872;2024-03-08T07:58:30;29.43;;;19.43;;
16310;SDS011;8264;48.510;8.872;2024-03-08T08:01:17;25.10;;;18.07;;
16310;SDS011;8264;48.510;8.872;2024-03-08T08:03:43;27.97;;;19.83;;
16310;SDS011;8264;48.510;8.872;2024-03-08T08:06:10;27.60;;;18.70;;
16310;SDS011;8264;48.510;8.872;2024-03-08T08:08:40;25.97;;;17.57;;
16310;SDS011;8264;48.510;8.872;2024-03-08T08:11:08;29.73;;;19.07;;
16310;SDS011;8264;48.510;8.872;2024-03-08T08:13:36;25.73;;;18.73;;
16310;SDS011;8264;48.510;8.872;2024-03-08T08:16:04;28.50;;;19.10;;
16310;SDS011;8264;48.510;8.872;2024-03-08T08:18:35;28.20;;;17.53;;
16310;SDS011;8264;48.510;8.872;2024-03-08T08:21:02;29.73;;;18.90;;
16310;SDS011;8264;48.510;8.872;2024-03-08T08:23:31;25.87;;;18.27;;
16310;SDS011;8264;48.510;8.872;2024-03-08T08:25:58;26.77;;;17.50;;
16310;SDS011;8264;48.510;8.872;2024-03-08T08:28:27;29.83;;;18.10;;
16310;SDS011;8264;48.510;8.872;2024-03-08T08:30:54;24.17;;;16.80;;
16310;SDS011;8264;48.510;8.872;2024-03-08T08:33:21;23.20;;;17.17;;
16310;SDS011;8264;48.510;8.872;2024-03-08T08:35:52;25.57;;;18.73;;
16310;SDS011;8264;48.510;8.872;2024-03-08T08:38:19;33.03;;;20.50;;
16310;SDS011;8264;48.510;8.872;2024-03-08T08:40:46;24.00;;;15.63;;
16310;SDS011;8264;48.510;8.872;2024-03-08T08:43:13;22.73;;;16.40;;
16310;SDS011;8264;48.510;8.872;2024-03-08T08:45:53;24.97;;;16.30;;
16310;SDS011;8264;48.510;8.872;2024-03-08T08:48:28;26.03;;;18.10;;
16310;SDS011;8264;48.510;8.872;2024-03-08T08:50:57;22.50;;;15.27;;
16310;SDS011;8264;48.510;8.872;2024-03-08T08:53:24;30.63;;;15.03;;
16310;SDS011;8264;48.510;8.872;2024-03-08T08:55:51;30.73;;;17.40;;
16310;SDS011;8264;48.510;8.872;2024-03-08T08:58:18;21.43;;;15.27;;
16310;SDS011;8264;48.510;8.872;2024-03-08T09:00:45;23.70;;;17.87;;
16310;SDS011;8264;48.510;8.872;2024-03-08T09:06:15;19.93;;;13.90;;
16310;SDS011;8264;48.510;8.872;2024-03-08T09:08:58;20.63;;;14.00;;
16310;SDS011;8264;48.510;8.872;2024-03-08T09:11:29;22.60;;;16.13;;
16310;SDS011;8264;48.510;8.872;2024-03-08T09:13:57;20.40;;;14.80;;
16310;SDS011;8264;48.510;8.872;2024-03-08T09:16:24;21.53;;;14.70;;
16310;SDS011;8264;48.510;8.872;2024-03-08T09:18:50;19.37;;;13.67;;
16310;SDS011;8264;48.510;8.872;2024-03-08T09:21:32;22.10;;;15.60;;
16310;SDS011;8264;48.510;8.872;2024-03-08T09:27:01;24.77;;;15.40;;
16310;SDS011;8264;48.510;8.872;2024-03-08T09:29:28;18.07;;;12.80;;
16310;SDS011;8264;48.510;8.872;2024-03-08T09:32:09;20.23;;;14.13;;
16310;SDS011;8264;48.510;8.872;2024-03-08T09:34:39;20.07;;;13.87;;
16310;SDS011;8264;48.510;8.872;2024-03-08T09:40:49;19.80;;;13.30;;
16310;SDS011;8264;48.510;8.872;2024-03-08T09:43:15;20.37;;;14.40;;
16310;SDS011;8264;48.510;8.872;2024-03-08T09:45:59;19.57;;;14.00;;
16310;SDS011;8264;48.510;8.872;2024-03-08T09:52:10;18.77;;;13.60;;
16310;SDS011;8264;48.510;8.872;2024-03-08T10:01:33;19.57;;;13.57;;
16310;SDS011;8264;48.510;8.872;2024-03-08T10:04:02;18.70;;;13.00;;
16310;SDS011;8264;48.510;8.872;2024-03-08T10:06:42;17.53;;;13.20;;
16310;SDS011;8264;48.510;8.872;2024-03-08T10:09:17;17.50;;;12.83;;
16310;SDS011;8264;48.510;8.872;2024-03-08T10:15:20;17.43;;;13.43;;
16310;SDS011;8264;48.510;8.872;2024-03-08T10:18:02;19.07;;;13.63;;
16310;SDS011;8264;48.510;8.872;2024-03-08T10:24:06;20.57;;;13.57;;
16310;SDS011;8264;48.510;8.872;2024-03-08T10:26:45;17.97;;;12.67;;
16310;SDS011;8264;48.510;8.872;2024-03-08T10:29:14;20.17;;;13.30;;
16310;SDS011;8264;48.510;8.872;2024-03-08T10:31:55;17.20;;;13.00;;
16310;SDS011;8264;48.510;8.872;2024-03-08T10:38:22;16.53;;;12.40;;
16310;SDS011;8264;48.510;8.872;2024-03-08T10:40:49;17.33;;;11.63;;
16310;SDS011;8264;48.510;8.872;2024-03-08T10:50:47;15.90;;;11.67;;
16310;SDS011;8264;48.510;8.872;2024-03-08T11:00:47;20.53;;;13.80;;
16310;SDS011;8264;48.510;8.872;2024-03-08T11:26:17;18.90;;;14.33;;
16310;SDS011;8264;48.510;8.872;2024-03-08T11:39:50;16.17;;;12.10;;
16310;SDS011;8264;48.510;8.872;2024-03-08T11:46:13;14.57;;;11.47;;
16310;SDS011;8264;48.510;8.872;2024-03-08T13:27:42;15.93;;;12.40;;
16310;SDS011;8264;48.510;8.872;2024-03-08T13:30:09;13.30;;;11.17;;
16310;SDS011;8264;48.510;8.872;2024-03-08T13:36:03;12.20;;;10.30;;
16310;SDS011;8264;48.510;8.872;2024-03-08T13:42:09;16.77;;;12.57;;
16310;SDS011;8264;48.510;8.872;2024-03-08T13:44:40;18.53;;;12.83;;
16310;SDS011;8264;48.510;8.872;2024-03-08T13:47:10;18.33;;;12.57;;
16310;SDS011;8264;48.510;8.872;2024-03-08T13:49:38;14.43;;;11.70;;
16310;SDS011;8264;48.510;8.872;2024-03-08T13:52:05;18.53;;;12.70;;
16310;SDS011;8264;48.510;8.872;2024-03-08T13:54:34;15.50;;;11.97;;
16310;SDS011;8264;48.510;8.872;2024-03-08T13:57:05;15.30;;;11.47;;
16310;SDS011;8264;48.510;8.872;2024-03-08T14:02:40;17.03;;;11.77;;
16310;SDS011;8264;48.510;8.872;2024-03-08T14:05:22;15.70;;;12.37;;
16310;SDS011;8264;48.510;8.872;2024-03-08T14:08:00;15.33;;;11.80;;
16310;SDS011;8264;48.510;8.872;2024-03-08T14:10:45;15.37;;;11.57;;
16310;SDS011;8264;48.510;8.872;2024-03-08T14:13:40;14.90;;;12.10;;
16310;SDS011;8264;48.510;8.872;2024-03-08T14:16:23;15.77;;;11.70;;
16310;SDS011;8264;48.510;8.872;2024-03-08T14:18:51;16.00;;;11.73;;
16310;SDS011;8264;48.510;8.872;2024-03-08T14:21:18;14.80;;;11.87;;
16310;SDS011;8264;48.510;8.872;2024-03-08T14:23:44;15.07;;;12.13;;
16310;SDS011;8264;48.510;8.872;2024-03-08T14:26:13;14.53;;;11.37;;
16310;SDS011;8264;48.510;8.872;2024-03-08T14:28:41;16.10;;;12.37;;
16310;SDS011;8264;48.510;8.872;2024-03-08T14:31:07;14.93;;;12.53;;
16310;SDS011;8264;48.510;8.872;2024-03-08T14:33:39;14.60;;;10.63;;
16310;SDS011;8264;48.510;8.872;2024-03-08T14:36:08;17.13;;;12.50;;
16310;SDS011;8264;48.510;8.872;2024-03-08T14:38:38;17.53;;;12.13;;
16310;SDS011;8264;48.510;8.872;2024-03-08T14:41:05;15.87;;;12.60;;
16310;SDS011;8264;48.510;8.872;2024-03-08T14:43:32;15.43;;;11.90;;
16310;SDS011;8264;48.510;8.872;2024-03-08T14:45:59;16.40;;;11.97;;
16310;SDS011;8264;48.510;8.872;2024-03-08T14:48:25;15.00;;;11.67;;
16310;SDS011;8264;48.510;8.872;2024-03-08T14:51:00;15.53;;;12.10;;
16310;SDS011;8264;48.510;8.872;2024-03-08T14:53:28;15.90;;;12.20;;
16310;SDS011;8264;48.510;8.872;2024-03-08T14:55:55;16.27;;;12.37;;
16310;SDS011;8264;48.510;8.872;2024-03-08T14:58:22;16.13;;;13.17;;
16310;SDS011;8264;48.510;8.872;2024-03-08T15:00:50;14.37;;;11.40;;
16310;SDS011;8264;48.510;8.872;2024-03-08T15:03:20;17.93;;;12.37;;
16310;SDS011;8264;48.510;8.872;2024-03-08T15:05:52;17.87;;;13.30;;
16310;SDS011;8264;48.510;8.872;2024-03-08T15:08:33;15.13;;;12.30;;
16310;SDS011;8264;48.510;8.872;2024-03-08T15:11:17;15.97;;;11.77;;
16310;SDS011;8264;48.510;8.872;2024-03-08T15:13:54;14.90;;;11.80;;
16310;SDS011;8264;48.510;8.872;2024-03-08T15:16:37;14.17;;;11.97;;
16310;SDS011;8264;48.510;8.872;2024-03-08T15:19:16;15.63;;;13.27;;
16310;SDS011;8264;48.510;8.872;2024-03-08T15:21:52;14.47;;;11.53;;
16310;SDS011;8264;48.510;8.872;2024-03-08T15:24:33;15.37;;;11.87;;
16310;SDS011;8264;48.510;8.872;2024-03-08T15:27:08;15.30;;;12.30;;
16310;SDS011;8264;48.510;8.872;2024-03-08T15:29:35;16.00;;;12.43;;
16310;SDS011;8264;48.510;8.872;2024-03-08T15:32:10;15.00;;;11.33;;
16310;SDS011;8264;48.510;8.872;2024-03-08T15:34:48;15.53;;;11.27;;
16310;SDS011;8264;48.510;8.872;2024-03-08T15:37:25;16.73;;;11.60;;
16310;SDS011;8264;48.510;8.872;2024-03-08T15:39:54;15.53;;;11.67;;
16310;SDS011;8264;48.510;8.872;2024-03-08T15:42:22;17.07;;;13.07;;
16310;SDS011;8264;48.510;8.872;2024-03-08T15:44:52;18.07;;;12.70;;
16310;SDS011;8264;48.510;8.872;2024-03-08T15:47:21;15.93;;;12.37;;
16310;SDS011;8264;48.510;8.872;2024-03-08T15:49:50;16.53;;;12.37;;
16310;SDS011;8264;48.510;8.872;2024-03-08T15:52:17;19.13;;;13.23;;
16310;SDS011;8264;48.510;8.872;2024-03-08T15:54:45;15.97;;;12.43;;
16310;SDS011;8264;48.510;8.872;2024-03-08T15:57:13;16.43;;;12.90;;
16310;SDS011;8264;48.510;8.872;2024-03-08T15:59:40;14.93;;;11.67;;
16310;SDS011;8264;48.510;8.872;2024-03-08T16:02:08;19.07;;;14.27;;
16310;SDS011;8264;48.510;8.872;2024-03-08T16:04:34;22.03;;;16.23;;
16310;SDS011;8264;48.510;8.872;2024-03-08T16:07:01;17.10;;;13.93;;
16310;SDS011;8264;48.510;8.872;2024-03-08T16:09:27;17.03;;;13.47;;
16310;SDS011;8264;48.510;8.872;2024-03-08T16:11:56;18.33;;;13.67;;
16310;SDS011;8264;48.510;8.872;2024-03-08T16:14:24;16.87;;;13.27;;
16310;SDS011;8264;48.510;8.872;2024-03-08T16:16:51;18.67;;;13.03;;
16310;SDS011;8264;48.510;8.872;2024-03-08T16:19:17;17.57;;;13.70;;
16310;SDS011;8264;48.510;8.872;2024-03-08T16:21:44;18.63;;;13.07;;
16310;SDS011;8264;48.510;8.872;2024-03-08T16:24:10;18.53;;;13.93;;
16310;SDS011;8264;48.510;8.872;2024-03-08T16:26:37;19.50;;;13.40;;
16310;SDS011;8264;48.510;8.872;2024-03-08T16:29:04;18.43;;;13.10;;
16310;SDS011;8264;48.510;8.872;2024-03-08T16:31:32;19.90;;;12.50;;
16310;SDS011;8264;48.510;8.872;2024-03-08T16:34:02;17.67;;;13.33;;
16310;SDS011;8264;48.510;8.872;2024-03-08T16:36:30;19.37;;;13.47;;
16310;SDS011;8264;48.510;8.872;2024-03-08T16:38:57;16.63;;;12.63;;
16310;SDS011;8264;48.510;8.872;2024-03-08T16:41:23;18.50;;;12.80;;
16310;SDS011;8264;48.510;8.872;2024-03-08T16:43:50;20.07;;;12.63;;
16310;SDS011;8264;48.510;8.872;2024-03-08T16:46:17;16.93;;;12.83;;
16310;SDS011;8264;48.510;8.872;2024-03-08T16:48:45;20.17;;;13.43;;
16310;SDS011;8264;48.510;8.872;2024-03-08T16:51:13;18.03;;;12.87;;
16310;SDS011;8264;48.510;8.872;2024-03-08T16:53:39;18.87;;;12.73;;
16310;SDS011;8264;48.510;8.872;2024-03-08T16:56:07;19.17;;;13.17;;
16310;SDS011;8264;48.510;8.872;2024-03-08T16:58:36;17.33;;;12.63;;
16310;SDS011;8264;48.510;8.872;2024-03-08T17:01:03;21.73;;;13.93;;
16310;SDS011;8264;48.510;8.872;2024-03-08T17:03:31;19.87;;;14.23;;
16310;SDS011;8264;48.510;8.872;2024-03-08T17:05:59;22.63;;;13.20;;
16310;SDS011;8264;48.510;8.872;2024-03-08T17:08:27;18.27;;;13.23;;
16310;SDS011;8264;48.510;8.872;2024-03-08T17:10:55;20.33;;;13.63;;
16310;SDS011;8264;48.510;8.872;2024-03-08T17:13:21;22.10;;;14.73;;
16310;SDS011;8264;48.510;8.872;2024-03-08T17:15:48;22.93;;;13.17;;
16310;SDS011;8264;48.510;8.872;2024-03-08T17:18:14;20.83;;;13.80;;
16310;SDS011;8264;48.510;8.872;2024-03-08T17:20:41;21.33;;;13.97;;
16310;SDS011;8264;48.510;8.872;2024-03-08T17:23:09;21.50;;;14.03;;
16310;SDS011;8264;48.510;8.872;2024-03-08T17:25:38;18.87;;;13.77;;
16310;SDS011;8264;48.510;8.872;2024-03-08T17:28:05;20.47;;;13.80;;
16310;SDS011;8264;48.510;8.872;2024-03-08T17:30:33;22.07;;;14.50;;
16310;SDS011;8264;48.510;8.872;2024-03-08T17:33:03;22.20;;;13.40;;
16310;SDS011;8264;48.510;8.872;2024-03-08T17:35:33;18.40;;;11.97;;
16310;SDS011;8264;48.510;8.872;2024-03-08T17:38:03;21.93;;;13.53;;
16310;SDS011;8264;48.510;8.872;2024-03-08T17:40:36;19.17;;;13.57;;
16310;SDS011;8264;48.510;8.872;2024-03-08T17:43:04;21.27;;;14.33;;
16310;SDS011;8264;48.510;8.872;2024-03-08T17:45:32;21.67;;;13.73;;
16310;SDS011;8264;48.510;8.872;2024-03-08T17:48:01;21.40;;;14.47;;
16310;SDS011;8264;48.510;8.872;2024-03-08T17:50:29;21.40;;;13.53;;
16310;SDS011;8264;48.510;8.872;2024-03-08T17:52:56;19.70;;;13.80;;
16310;SDS011;8264;48.510;8.872;2024-03-08T17:55:23;19.67;;;14.73;;
16310;SDS011;8264;48.510;8.872;2024-03-08T17:57:52;20.17;;;14.20;;